Dauntless Aviation
Airports Europe Germany
EDSW

Altdorf-Wallburg

Altdorf-Wallburg, GERMANY

Airport Info
Suggest Updated Information for this Airport

Location

Latitude / Longitude: 48°16'11"N / 7°50'31"E
  48°16.188'N / 7°50.532'E
  48.2698 / 7.8422
Satellite photo at:
Airport distance calculator
From:
Weather Reports

METAR

EDTL
5.8nm NW
EDTL 241520Z 01002KT 4500 BR OVC011 M04/M04 Q1028
LFST
18.2nm NW
LFST 241500Z AUTO 02007KT 6000 BKN015 OVC021 M03/M04 Q1027 BECMG BKN014
LFGA
22.2nm SW
LFGA 241500Z AUTO 09002KT 3800 BR OVC008 M03/M05 Q1027
EDSB
32.3nm N
EDSB 241520Z 02008KT 2500 -SG BR SCT010 BKN020 M04/M04 Q1028

TAF

EDTL
5.8nm NW
TAF EDTL 241400Z 2415/2424 06003KT 4000 BR SCT003 BKN012 TEMPO 2415/2424 1200 -SG BCFG BKN003
LFST
18.2nm NW
TAF AMD LFST 241321Z 2413/2512 01006KT 4500 BR BKN009 BECMG 2413/2415 6000 NSW BKN014 TEMPO 2413/2415 -SG PROB40 TEMPO 2423/2510 1500 BR OVC005 PROB30 TEMPO 2504/2509 0800 BCFG OVC002
EDSB
32.3nm N
TAF EDSB 241100Z 2412/2512 05006KT 5000 BR SCT004 BKN015 TEMPO 2412/2421 2000 -SG BKN004
Safelog

 

Dauntless Aviation

© 2007-2017 Dauntless Aviation, all rights reserved
Information provided via PilotNav comes from a variety of official and unofficial data sources. As errors are possible, do not use PilotNav for primary flight planning purposes. Verify any information that you receive via PilotNav with current and canonical charts and other official documents. The material in this database is subject to database copyrights held by Dauntless Aviation and may not be copied without the express permission of Dauntless Aviation - licenses for use of part of all of this data are available for purchase; enquire via the Dauntless Aviation helpdesk. A number of mechanisms and markers exist in the database to protect against and identify infringement / copyright. Automated queries against this website are stictly prohibited, and all activity is logged and analyzed.